Welcome to our Virtual Airline
Sign-in:

Flight MFC37841

  • Submitted By: Thomas Menzel
  • Departure Airport: Port Williams SPB (KPR)
  • Arrival Airport: Kulik Lake (LKK)
  • Aircraft: DHC6 TWIN OT (N255MM)
  • Flight Time: 00.45.56
  • Date Submitted: 19/06/11
  • Route: STOP-OVER AT OPTIONAL: (MCNEIL RIVER CAMP (MCN) (WATER) (THIS SPOT IS UN-MARKED BUT IT IS IN MCNEIL COVE)
  • Status: Accepted
Flight Details
Gross Revenue:
(15 load / $ 95.00 per unit
$ 1, 425.00
Fuel Cost:
(176.901 fuel used @ 5.1 / unit)
$ 902.20

Additional Log Information:

View Log

FS[17:56] ----- Flight Opened -----
FS[17:56] Cigar Box - 1.1.4.0
FS[17:56] FS: Prepar3D V4
FS[17:56] FSUIPC: v5.14
FS[17:56] Flight Number: MFC37841
FS[17:56] FS Aircraft: DHC-6 300 Amphib RTMM
FS[17:56] FS Model: DHC6
FS[17:56] FS Type: DeHavilland
FS[17:56] Departure: KPR
FS[17:56] Arrival: LKK
FS[17:56] Flight Level: 6500
FS[17:56] Flight Type: H
FS[17:56] Passengers: 15
FS[17:56] FOB: 2767 lbs
FS[17:56] Gate: n/a
FS[17:56] NOTE: Parking Brake Ignored
FS[17:56] Crash Detection: Disabled
FS[17:56] Engines: 2 Turboprop
FS[17:56] NOTE: Boarding has started
FS[17:56] Landing Gear: Retracted
FS[17:56] Engine 1: Started
FS[17:56] Engine 2: Started
FS[17:56] Light Data: Navigation ON
FS[17:56] Light Data: Beacon ON
FS[17:56] Light Data: Taxi lights ON
FS[17:56] Main Door Closed
FS[17:56] COM1: 121.90
FS[17:56] COM2: 127.80
FS[17:56] Transponder: 7000
FS[17:56] NAV1: 113.70
FS[17:56] NAV2: 110.60
FS[17:56] ADF1: 284.5
FS[17:56] ADF2: 240.0
FS[17:56] Navigation Mode: GPS
FS[17:56] Navigation Mode: GPS
FS[17:57] Flaps: Position 1
FS[17:57] NOTE: Taxi started
FS[17:57] ADF1: 284.5
FS[17:58] ADF1: 284.0
FS[17:58] Light Data: Landing lights ON
FS[17:58] Light Data: Strobe lights ON
FS[17:59] ADF1: 284.5
FS[17:59] NOTE: ----- TAKE OFF -----
FS[17:59] GS: 83 knots
FS[17:59] TAS: 87 knots
FS[17:59] IAS: 89 knots
FS[17:59] VS: 8 fpm
FS[17:59] FOB: 2756 lbs
FS[17:59] Heading: 169°
FS[17:59] Pitch: 1°
FS[17:59] Bank: 0°
FS[17:59] Aircraft Weight: 11506.52 lbs
FS[17:59] Nearest Airport: KPR
FS[17:59] Distance: 0.58 miles
FS[17:59] Runway: ???
FS[17:59] Ground Surface: Water
FS[17:59] Ground Condition: Normal
FS[17:59] NOTE: Weather Report
FS[17:59] Wind Heading: 216°
FS[17:59] Wind Speed: 5 knots
FS[17:59] OAT: 3° C
FS[17:59] TAT: 4° C
FS[17:59] Precipitation: None
FS[17:59] Dew Point: -1° C
FS[17:59] Visibility: 23 miles
FS[17:59] METAR: KPRB 111453Z AUTO 00000KT 10SM CLR 19/09 A3005 RMK AO2 SLP166 T01940094 53005KPRC 111453Z 00000KT 10SM CLR 23/02 A3031 RMK AO2 SLP177 T02280017 51005KPRN 111456Z AUTO VRB05KT 10SM CLR 27/18 A3003 RMK AO2 SLP164 T02670178 58002 $KPRO 111535Z AUTO 14004KT 10SM BKN120 21/07 A3013 RMK AO2 T02130067KPRS 111535Z AUTO 30003KT 10SM SCT022 BKN030 OVC044 21/16 A3025 RMK AO2 T02100159KPRX 111456Z AUTO 10010KT 10SM CLR 23/13 A3020 RMK AO2 SLP236 T02280128 50000
FS[17:59] NOTE: Climb started
FS[17:59] Flaps: Position 0
FS[17:59] GS: 85 knots
FS[17:59] TAS: 89 knots
FS[17:59] IAS: 90 knots
FS[17:59] VS: 519 fpm
FS[17:59] View Mode: Spot Plane
FS[17:59] Autopilot: Engaged
FS[17:59] AGL: 466 ft
FS[17:59] AMSL: 469 ft
FS[17:59] ADF1: 284.0
FS[18:00] Light Data: Landing lights OFF
FS[18:00] AGL: 541 ft
FS[18:00] AMSL: 541 ft
FS[18:00] ADF1: 284.5
FS[18:01] ADF1: 284.0
FS[18:02] ADF1: 284.5
FS[18:03] ADF1: 284.0
FS[18:04] ADF1: 284.5
FS[18:05] ADF1: 284.0
FS[18:05] ADF1: 284.5
FS[18:06] ADF1: 284.0
FS[18:07] ADF1: 284.5
FS[18:08] ADF1: 284.0
FS[18:09] ADF1: 284.5
FS[18:10] ADF1: 284.0
FS[18:10] ADF1: 284.5
FS[18:11] ADF1: 284.0
FS[18:12] ADF1: 284.5
FS[18:13] ADF1: 284.0
FS[18:14] ADF1: 284.5
FS[18:15] ADF1: 284.5
FS[18:15] Recovery: Flight Saved
FS[18:15] ADF1: 284.5
FS[18:16] ADF1: 284.0
FS[18:17] ADF1: 284.0
FS[18:18] ADF1: 284.5
FS[18:19] ADF1: 284.0
FS[18:20] ADF1: 284.5
FS[18:20] ADF1: 284.0
FS[18:21] ADF1: 284.5
FS[18:22] ADF1: 284.0
FS[18:23] ADF1: 284.5
FS[18:24] ADF1: 284.0
FS[18:25] ADF1: 284.5
FS[18:25] ADF1: 284.0
FS[18:26] ADF1: 284.5
FS[18:27] ADF1: 284.0
FS[18:27] Autopilot: Disengaged
FS[18:27] AGL: 696 ft
FS[18:27] AMSL: 843 ft
FS[18:27] Autopilot: Engaged
FS[18:27] AGL: 712 ft
FS[18:27] AMSL: 862 ft
FS[18:28] ADF1: 284.5
FS[18:29] ADF1: 284.0
FS[18:30] ADF1: 284.5
FS[18:30] ADF1: 284.0
FS[18:31] ADF1: 284.5
FS[18:32] ADF1: 284.0
FS[18:32] Recovery: Flight Saved
FS[18:33] ADF1: 284.5
FS[18:34] ADF1: 284.0
FS[18:35] ADF1: 284.5
FS[18:35] ADF1: 284.0
FS[18:36] Light Data: Landing lights ON
FS[18:36] AGL: 2117 ft
FS[18:36] AMSL: 2769 ft
FS[18:36] ADF1: 284.5
FS[18:36] FS: Paused
FS[18:36] ADF1: 284.0
FS[18:36] ADF1: 284.5
FS[18:36] ADF1: 284.0
FS[18:36] ADF1: 284.5
FS[18:36] ADF1: 284.0
FS[18:36] ADF1: 284.0
FS[18:36] ADF1: 284.5
FS[18:36] ADF1: 284.0
FS[18:36] ADF1: 284.5
FS[18:36] ADF1: 284.0
FS[18:36] ADF1: 284.5
FS[18:36] ADF1: 284.0
FS[18:36] ADF1: 284.5
FS[18:36] ADF1: 284.0
FS[18:36] ADF1: 284.5
FS[18:36] ADF1: 284.0
FS[18:36] ADF1: 284.5
FS[18:36] ADF1: 284.0
FS[18:36] ADF1: 284.0
FS[18:36] ADF1: 284.0
FS[18:36] ADF1: 284.0
FS[18:36] ADF1: 284.5
FS[18:36] ADF1: 284.0
FS[18:36] ADF1: 284.5
FS[18:36] ADF1: 284.0
FS[18:36] ADF1: 284.5
FS[18:36] ADF1: 284.0
FS[18:36] ADF1: 284.5
FS[18:36] ADF1: 284.5
FS[18:36] ADF1: 284.5
FS[18:36] ADF1: 284.5
FS[18:36] ADF1: 284.0
FS[18:36] ADF1: 284.5
FS[18:36] ADF1: 284.0
FS[18:36] ADF1: 284.5
FS[18:36] ADF1: 284.0
FS[18:36] ADF1: 284.5
FS[18:36] ADF1: 284.0
FS[18:36] ADF1: 284.5
FS[18:36] ADF1: 284.0
FS[18:36] ADF1: 284.5
FS[18:36] ADF1: 284.0
FS[18:36] ADF1: 284.0
FS[18:36] ADF1: 284.5
FS[18:36] ADF1: 284.0
FS[18:36] ADF1: 284.5
FS[18:36] ADF1: 284.0
FS[18:36] ADF1: 284.5
FS[18:36] ADF1: 284.0
FS[18:36] ADF1: 284.5
FS[18:36] ADF1: 284.0
FS[18:36] ADF1: 284.5
FS[18:36] ADF1: 284.0
FS[18:36] ADF1: 284.0
FS[18:36] ADF1: 284.5
FS[18:36] ADF1: 284.0
FS[18:36] ADF1: 284.5
FS[18:36] ADF1: 284.0
FS[18:36] FS: Unpaused
FS[18:36] Recovery: Flight Saved
FS[18:37] ADF1: 284.5
FS[18:38] ADF1: 284.0
FS[18:39] ADF1: 284.5
FS[18:39] Flaps: Position 1
FS[18:39] GS: 99 knots
FS[18:39] TAS: 98 knots
FS[18:39] IAS: 98 knots
FS[18:39] VS: 230 fpm
FS[18:39] ADF1: 284.0
FS[18:40] Flaps: Position 2
FS[18:40] GS: 101 knots
FS[18:40] TAS: 98 knots
FS[18:40] IAS: 98 knots
FS[18:40] VS: 16 fpm
FS[18:40] Landing Gear: Extended
FS[18:40] GS: 93 knots
FS[18:40] TAS: 90 knots
FS[18:40] IAS: 90 knots
FS[18:40] VS: -232 fpm
FS[18:40] AGL: 426 ft
FS[18:40] AMSL: 1128 ft
FS[18:40] ADF1: 284.5
FS[18:41] Autopilot: Disengaged
FS[18:41] AGL: 253 ft
FS[18:41] AMSL: 882 ft
FS[18:41] Flaps: Position 3
FS[18:41] GS: 71 knots
FS[18:41] TAS: 75 knots
FS[18:41] IAS: 75 knots
FS[18:41] VS: -323 fpm
FS[18:41] ADF1: 284.0
FS[18:41] Flaps: Position 4
FS[18:41] GS: 68 knots
FS[18:41] TAS: 70 knots
FS[18:41] IAS: 70 knots
FS[18:41] VS: 129 fpm
FS[18:41] Autopilot: Engaged
FS[18:41] AGL: 128 ft
FS[18:41] AMSL: 843 ft
FS[18:41] Autopilot: Disengaged
FS[18:41] AGL: 121 ft
FS[18:41] AMSL: 836 ft
FS[18:42] NOTE: ----- LANDED -----
FS[18:42] Landing Rate: -342.18 fpm
FS[18:42] GS: 54 knots
FS[18:42] TAS: 56 knots
FS[18:42] IAS: 56 knots
FS[18:42] VS: -340 fpm
FS[18:42] FOB: 2379 lbs
FS[18:42] Heading: 67°
FS[18:42] Pitch: 9°
FS[18:42] Bank: -2°
FS[18:42] Aircraft Weight: 11129.34 lbs
FS[18:42] Nearest Airport: LKK
FS[18:42] Distance: 0.17 miles
FS[18:42] Runway: 6 - LKK
FS[18:42] Ground Surface: Gravel
FS[18:42] Ground Condition: Normal
FS[18:42] NOTE: Weather Report
FS[18:42] Wind Heading: 104°
FS[18:42] Wind Speed: 2 knots
FS[18:42] OAT: 1° C
FS[18:42] TAT: 1° C
FS[18:42] Precipitation: None
FS[18:42] Dew Point: 0° C
FS[18:42] Visibility: 16 miles
FS[18:42] METAR: LKKB 111500Z 10013KT CAVOK 32/17 Q1008 NOSIG BLU BLULKKU 111400Z 16011KT CAVOK 31/17 Q1012LKKV 111530Z 10008KT 070V150 9999 FEW033 26/18 Q1010
FS[18:42] View Mode: Virtual Cockpit
FS[18:42] NOTE: Taxi started
FS[18:42] ADF1: 284.5
FS[18:42] Flaps: Position 0
FS[18:42] NOTE: Arrived
FS[18:42] Parking Brake: Engaged
FS[18:43] Gate: 3 - LKK
FS[18:43] NOTE: Flight Completed
FS[18:43] FS Aircraft: DHC-6 300 Amphib RTMM
FS[18:43] FS Model: DHC6
FS[18:43] FS Type: DeHavilland
FS[18:43] FOB: 2376 lbs
FS[18:43] Fuel Used: 390 lbs
FS[18:43] Flight Time: 00:45:56
FS[18:43] Flight Time (Dawn): 00:00:00
FS[18:43] Flight Time (Day): 00:45:56
FS[18:43] Flight Time (Dusk): 00:00:00
FS[18:43] Flight Time (Night): 00:00:00
FS[18:43] Total Landings: 1
FS[18:43] MaxSim Rate: 0x
FS[18:43] Cigar Box - 1.1.4.0
FS[18:43] ----- Flight Closed -----

Route Map